Aérodrome :
LOGIN :

S'inscrire | Disclaimer

   EN    FR    IT 

 










Légende :    VFR   VFR Marginal   IFR   IFR Intensif   IFR Très Intensif
Visi : 
Plafond : 
>= 8 km
>= 3000ft
5 à 8 km
1000 à 3000 ft
1500m à 5 km
500 à 1000 ft
800 à 1500m
200 à 500 ft
< 800m
< 200 ft
Symboles :   Orages  Brouillard  Fortes neiges  Fortes précipitations  Vent > 20 kt
SIGMETs :   Divers  Orages  Givrage  Turbulence  Onde Orograph.  Cendres Volcan.







- Altitude de l'aérodrome : 1822 ft


ETSL - Lechfeld AB

DERNIER METAR :
  • 220520Z AUTO 22014KT 9999 // ////// 09/06 Q1015 ///

METARs EXPIRÉS :
  • 220420Z AUTO 23017KT 9999 // ////// 09/06 Q1015 ///
  • 220320Z AUTO 22014G24KT 9999 // ////// 09/06 Q1015 ///

TAF TAF ETSL
Valide du 22 à 06h jusqu'au 22 à 15h UTC


220520Z 2206/2215 23015G30KT 9999 NSW SCT015 BKN040
TEMPO 2206/2212 24020G35KT 5000 -RA BKN012 BKN030
TEMPO 2212/2215 24020G38KT 4000 RADZ BKN007 OVC025 BY ETGL
Pas de NOTAMs connus pour ce terrain.



MET'MAP, la Météo Aéronautique d'un coup d'oeil ! - Copyright ORBIFLY Décembre 2007 - Disclaimer

ORBIFLY MET'MAP TEAM :

Programmation & Développement : Alexandra Zaïnal
Conception & Développement : Baudouin d'Aumeries
Co-Programmation & Développement : Marc-Olivier Méhu
Soutien technique & logistique : Manuel Goepfert

Contact : metmap@orbifly.com




SOURCES & CREDITS :

   NOAA